sensor_id;sensor_type;location;lat;lon;timestamp;pressure;altitude;pressure_sealevel;temperature;humidity
28428;BME280;15662;49.128;8.520;2023-08-06T00:01:59;99605.41;;;22.76;51.53
28428;BME280;15662;49.128;8.520;2023-08-06T00:04:26;99603.69;;;22.75;51.47
28428;BME280;15662;49.128;8.520;2023-08-06T00:06:54;99600.28;;;22.73;51.54
28428;BME280;15662;49.128;8.520;2023-08-06T00:09:22;99586.16;;;22.70;51.76
28428;BME280;15662;49.128;8.520;2023-08-06T00:11:50;99590.88;;;22.67;51.55
28428;BME280;15662;49.128;8.520;2023-08-06T00:14:18;99591.88;;;22.66;51.53
28428;BME280;15662;49.128;8.520;2023-08-06T00:16:46;99587.56;;;22.64;51.45
28428;BME280;15662;49.128;8.520;2023-08-06T00:19:14;99591.28;;;22.63;51.48
28428;BME280;15662;49.128;8.520;2023-08-06T00:21:42;99575.31;;;22.60;51.15
28428;BME280;15662;49.128;8.520;2023-08-06T00:24:09;99585.56;;;22.56;51.31
28428;BME280;15662;49.128;8.520;2023-08-06T00:26:37;99584.69;;;22.56;51.04
28428;BME280;15662;49.128;8.520;2023-08-06T00:29:05;99569.88;;;22.50;51.05
28428;BME280;15662;49.128;8.520;2023-08-06T00:31:33;99572.47;;;22.52;51.09
28428;BME280;15662;49.128;8.520;2023-08-06T00:34:01;99558.50;;;22.47;50.93
28428;BME280;15662;49.128;8.520;2023-08-06T00:36:28;99563.91;;;22.47;50.87
28428;BME280;15662;49.128;8.520;2023-08-06T00:38:56;99558.91;;;22.42;50.91
28428;BME280;15662;49.128;8.520;2023-08-06T00:41:24;99554.63;;;22.39;50.77
28428;BME280;15662;49.128;8.520;2023-08-06T00:43:52;99553.31;;;22.34;51.07
28428;BME280;15662;49.128;8.520;2023-08-06T00:46:20;99555.16;;;22.33;50.94
28428;BME280;15662;49.128;8.520;2023-08-06T00:48:48;99551.47;;;22.34;50.95
28428;BME280;15662;49.128;8.520;2023-08-06T00:51:18;99547.78;;;22.35;51.00
28428;BME280;15662;49.128;8.520;2023-08-06T00:53:47;99541.41;;;22.36;50.90
28428;BME280;15662;49.128;8.520;2023-08-06T00:56:16;99553.38;;;22.44;51.11
28428;BME280;15662;49.128;8.520;2023-08-06T00:58:45;99554.06;;;22.46;50.67
28428;BME280;15662;49.128;8.520;2023-08-06T01:01:14;99540.13;;;22.40;50.86
28428;BME280;15662;49.128;8.520;2023-08-06T01:03:41;99548.56;;;22.47;50.73
28428;BME280;15662;49.128;8.520;2023-08-06T01:06:09;99546.31;;;22.52;50.64
28428;BME280;15662;49.128;8.520;2023-08-06T01:09:01;99542.34;;;22.56;50.63
28428;BME280;15662;49.128;8.520;2023-08-06T01:12:08;99529.97;;;22.54;50.49
28428;BME280;15662;49.128;8.520;2023-08-06T01:15:23;99522.28;;;22.49;50.68
28428;BME280;15662;49.128;8.520;2023-08-06T01:17:52;99516.88;;;22.49;50.63
28428;BME280;15662;49.128;8.520;2023-08-06T01:20:21;99514.91;;;22.51;50.57
28428;BME280;15662;49.128;8.520;2023-08-06T01:22:50;99514.47;;;22.56;50.49
28428;BME280;15662;49.128;8.520;2023-08-06T01:25:18;99514.22;;;22.59;50.48
28428;BME280;15662;49.128;8.520;2023-08-06T01:27:50;99502.56;;;22.58;50.39
28428;BME280;15662;49.128;8.520;2023-08-06T01:30:27;99508.66;;;22.60;50.44
28428;BME280;15662;49.128;8.520;2023-08-06T01:33:00;99516.75;;;22.60;50.49
28428;BME280;15662;49.128;8.520;2023-08-06T01:35:32;99503.56;;;22.57;50.48
28428;BME280;15662;49.128;8.520;2023-08-06T01:38:01;99499.59;;;22.61;50.58
28428;BME280;15662;49.128;8.520;2023-08-06T01:40:31;99501.69;;;22.58;50.63
28428;BME280;15662;49.128;8.520;2023-08-06T01:43:00;99505.69;;;22.63;50.75
28428;BME280;15662;49.128;8.520;2023-08-06T01:45:27;99493.78;;;22.66;50.64
28428;BME280;15662;49.128;8.520;2023-08-06T01:47:55;99499.63;;;22.71;50.61
28428;BME280;15662;49.128;8.520;2023-08-06T01:50:24;99498.72;;;22.71;50.63
28428;BME280;15662;49.128;8.520;2023-08-06T01:52:52;99489.94;;;22.69;50.61
28428;BME280;15662;49.128;8.520;2023-08-06T01:55:20;99500.06;;;22.76;50.55
28428;BME280;15662;49.128;8.520;2023-08-06T01:57:47;99486.09;;;22.71;50.49
28428;BME280;15662;49.128;8.520;2023-08-06T02:00:18;99499.75;;;22.79;50.41
28428;BME280;15662;49.128;8.520;2023-08-06T02:02:47;99493.66;;;22.77;50.27
28428;BME280;15662;49.128;8.520;2023-08-06T02:05:28;99485.56;;;22.77;50.11
28428;BME280;15662;49.128;8.520;2023-08-06T02:07:55;99495.34;;;22.69;50.31
28428;BME280;15662;49.128;8.520;2023-08-06T02:10:23;99490.94;;;22.67;50.42
28428;BME280;15662;49.128;8.520;2023-08-06T02:12:51;99498.19;;;22.67;50.49
28428;BME280;15662;49.128;8.520;2023-08-06T02:15:19;99486.94;;;22.62;50.47
28428;BME280;15662;49.128;8.520;2023-08-06T02:17:47;99491.47;;;22.61;50.55
28428;BME280;15662;49.128;8.520;2023-08-06T02:20:15;99490.75;;;22.59;50.60
28428;BME280;15662;49.128;8.520;2023-08-06T02:22:43;99485.50;;;22.58;50.72
28428;BME280;15662;49.128;8.520;2023-08-06T02:25:10;99491.03;;;22.56;50.78
28428;BME280;15662;49.128;8.520;2023-08-06T02:27:38;99480.66;;;22.52;50.90
28428;BME280;15662;49.128;8.520;2023-08-06T02:30:07;99475.91;;;22.44;50.73
28428;BME280;15662;49.128;8.520;2023-08-06T02:32:35;99472.94;;;22.37;50.84
28428;BME280;15662;49.128;8.520;2023-08-06T02:35:03;99474.78;;;22.37;50.68
28428;BME280;15662;49.128;8.520;2023-08-06T02:37:34;99461.09;;;22.29;50.77
28428;BME280;15662;49.128;8.520;2023-08-06T02:40:02;99468.34;;;22.28;50.86
28428;BME280;15662;49.128;8.520;2023-08-06T02:42:30;99466.03;;;22.24;50.85
28428;BME280;15662;49.128;8.520;2023-08-06T02:44:58;99459.34;;;22.18;50.91
28428;BME280;15662;49.128;8.520;2023-08-06T02:47:26;99462.31;;;22.15;50.96
28428;BME280;15662;49.128;8.520;2023-08-06T02:49:55;99459.41;;;22.07;51.03
28428;BME280;15662;49.128;8.520;2023-08-06T02:52:23;99468.47;;;22.06;50.95
28428;BME280;15662;49.128;8.520;2023-08-06T02:54:51;99476.00;;;22.02;51.01
28428;BME280;15662;49.128;8.520;2023-08-06T02:57:19;99479.66;;;22.01;51.05
28428;BME280;15662;49.128;8.520;2023-08-06T02:59:49;99471.72;;;22.00;51.13
28428;BME280;15662;49.128;8.520;2023-08-06T03:02:20;99466.72;;;21.95;51.13
28428;BME280;15662;49.128;8.520;2023-08-06T03:05:03;99464.41;;;21.90;51.38
28428;BME280;15662;49.128;8.520;2023-08-06T03:07:35;99463.81;;;21.87;51.27
28428;BME280;15662;49.128;8.520;2023-08-06T03:10:12;99473.06;;;21.84;51.25
28428;BME280;15662;49.128;8.520;2023-08-06T03:12:42;99476.00;;;21.81;51.41
28428;BME280;15662;49.128;8.520;2023-08-06T03:15:10;99454.81;;;21.77;51.31
28428;BME280;15662;49.128;8.520;2023-08-06T03:17:39;99457.66;;;21.75;51.55
28428;BME280;15662;49.128;8.520;2023-08-06T03:20:09;99455.97;;;21.74;51.44
28428;BME280;15662;49.128;8.520;2023-08-06T03:22:38;99463.06;;;21.75;51.42
28428;BME280;15662;49.128;8.520;2023-08-06T03:25:07;99466.00;;;21.72;51.20
28428;BME280;15662;49.128;8.520;2023-08-06T03:27:36;99465.56;;;21.67;51.41
28428;BME280;15662;49.128;8.520;2023-08-06T03:30:04;99475.38;;;21.68;51.40
28428;BME280;15662;49.128;8.520;2023-08-06T03:32:33;99471.09;;;21.66;51.34
28428;BME280;15662;49.128;8.520;2023-08-06T03:35:01;99485.41;;;21.66;51.38
28428;BME280;15662;49.128;8.520;2023-08-06T03:37:30;99483.72;;;21.65;51.66
28428;BME280;15662;49.128;8.520;2023-08-06T03:39:58;99475.16;;;21.60;51.57
28428;BME280;15662;49.128;8.520;2023-08-06T03:42:26;99474.19;;;21.61;51.56
28428;BME280;15662;49.128;8.520;2023-08-06T03:44:54;99485.56;;;21.64;51.48
28428;BME280;15662;49.128;8.520;2023-08-06T03:47:22;99475.88;;;21.62;51.45
28428;BME280;15662;49.128;8.520;2023-08-06T03:49:52;99482.28;;;21.61;51.47
28428;BME280;15662;49.128;8.520;2023-08-06T03:52:21;99481.56;;;21.59;51.31
28428;BME280;15662;49.128;8.520;2023-08-06T03:54:49;99484.97;;;21.61;51.42
28428;BME280;15662;49.128;8.520;2023-08-06T03:57:17;99490.34;;;21.61;51.45
28428;BME280;15662;49.128;8.520;2023-08-06T03:59:45;99479.84;;;21.58;51.24
28428;BME280;15662;49.128;8.520;2023-08-06T04:02:24;99483.41;;;21.58;51.13
28428;BME280;15662;49.128;8.520;2023-08-06T04:04:52;99494.19;;;21.58;51.15
28428;BME280;15662;49.128;8.520;2023-08-06T04:07:21;99484.50;;;21.56;51.07
28428;BME280;15662;49.128;8.520;2023-08-06T04:09:58;99466.88;;;21.52;51.00
28428;BME280;15662;49.128;8.520;2023-08-06T04:12:27;99480.34;;;21.52;51.21
28428;BME280;15662;49.128;8.520;2023-08-06T04:14:58;99482.78;;;21.55;51.08
28428;BME280;15662;49.128;8.520;2023-08-06T04:17:26;99481.50;;;21.49;51.14
28428;BME280;15662;49.128;8.520;2023-08-06T04:19:54;99472.53;;;21.49;51.15
28428;BME280;15662;49.128;8.520;2023-08-06T04:22:22;99480.34;;;21.52;51.32
28428;BME280;15662;49.128;8.520;2023-08-06T04:24:50;99472.41;;;21.50;51.09
28428;BME280;15662;49.128;8.520;2023-08-06T04:27:19;99475.41;;;21.57;51.00
28428;BME280;15662;49.128;8.520;2023-08-06T04:29:49;99472.25;;;21.52;51.17
28428;BME280;15662;49.128;8.520;2023-08-06T04:32:17;99471.03;;;21.56;51.13
28428;BME280;15662;49.128;8.520;2023-08-06T04:34:50;99480.09;;;21.55;51.09
28428;BME280;15662;49.128;8.520;2023-08-06T04:37:18;99478.00;;;21.58;50.82
28428;BME280;15662;49.128;8.520;2023-08-06T04:39:45;99478.25;;;21.55;51.08
28428;BME280;15662;49.128;8.520;2023-08-06T04:42:13;99484.38;;;21.57;51.01
28428;BME280;15662;49.128;8.520;2023-08-06T04:44:41;99476.56;;;21.54;51.23
28428;BME280;15662;49.128;8.520;2023-08-06T04:47:09;99470.56;;;21.51;51.25
28428;BME280;15662;49.128;8.520;2023-08-06T04:49:37;99475.69;;;21.54;51.16
28428;BME280;15662;49.128;8.520;2023-08-06T04:52:05;99474.84;;;21.53;51.20
28428;BME280;15662;49.128;8.520;2023-08-06T04:54:34;99489.03;;;21.55;51.16
28428;BME280;15662;49.128;8.520;2023-08-06T04:57:02;99484.50;;;21.56;51.37
28428;BME280;15662;49.128;8.520;2023-08-06T04:59:30;99476.69;;;21.53;51.32
28428;BME280;15662;49.128;8.520;2023-08-06T05:01:57;99492.34;;;21.59;51.13
28428;BME280;15662;49.128;8.520;2023-08-06T05:04:25;99475.56;;;21.55;51.31
28428;BME280;15662;49.128;8.520;2023-08-06T05:06:53;99488.50;;;21.61;51.27
28428;BME280;15662;49.128;8.520;2023-08-06T05:09:21;99476.16;;;21.59;51.33
28428;BME280;15662;49.128;8.520;2023-08-06T05:11:49;99486.09;;;21.58;51.28
28428;BME280;15662;49.128;8.520;2023-08-06T05:14:18;99476.28;;;21.57;51.55
28428;BME280;15662;49.128;8.520;2023-08-06T05:16:45;99480.94;;;21.55;51.78
28428;BME280;15662;49.128;8.520;2023-08-06T05:19:13;99480.09;;;21.55;51.63
28428;BME280;15662;49.128;8.520;2023-08-06T05:21:41;99479.25;;;21.54;51.85
28428;BME280;15662;49.128;8.520;2023-08-06T05:24:09;99480.81;;;21.57;52.03
28428;BME280;15662;49.128;8.520;2023-08-06T05:26:37;99479.09;;;21.56;51.88
28428;BME280;15662;49.128;8.520;2023-08-06T05:29:05;99489.03;;;21.55;51.95
28428;BME280;15662;49.128;8.520;2023-08-06T05:31:32;99485.50;;;21.55;52.18
28428;BME280;15662;49.128;8.520;2023-08-06T05:34:00;99494.81;;;21.51;52.25
28428;BME280;15662;49.128;8.520;2023-08-06T05:36:29;99489.56;;;21.49;52.08
28428;BME280;15662;49.128;8.520;2023-08-06T05:38:57;99485.19;;;21.48;52.35
28428;BME280;15662;49.128;8.520;2023-08-06T05:41:24;99483.31;;;21.49;52.25
28428;BME280;15662;49.128;8.520;2023-08-06T05:43:52;99488.81;;;21.47;52.26
28428;BME280;15662;49.128;8.520;2023-08-06T05:46:20;99490.09;;;21.43;52.39
28428;BME280;15662;49.128;8.520;2023-08-06T05:48:48;99498.91;;;21.45;52.17
28428;BME280;15662;49.128;8.520;2023-08-06T05:51:16;99500.88;;;21.43;52.20
28428;BME280;15662;49.128;8.520;2023-08-06T05:53:44;99503.56;;;21.43;52.58
28428;BME280;15662;49.128;8.520;2023-08-06T05:56:14;99505.66;;;21.40;52.90
28428;BME280;15662;49.128;8.520;2023-08-06T05:58:43;99504.34;;;21.34;52.86
28428;BME280;15662;49.128;8.520;2023-08-06T06:01:10;99503.59;;;21.32;53.11
28428;BME280;15662;49.128;8.520;2023-08-06T06:03:38;99507.41;;;21.29;53.24
28428;BME280;15662;49.128;8.520;2023-08-06T06:06:06;99503.09;;;21.27;53.25
28428;BME280;15662;49.128;8.520;2023-08-06T06:08:34;99509.34;;;21.27;53.43
28428;BME280;15662;49.128;8.520;2023-08-06T06:11:02;99496.88;;;21.26;53.32
28428;BME280;15662;49.128;8.520;2023-08-06T06:13:30;99506.19;;;21.22;53.60
28428;BME280;15662;49.128;8.520;2023-08-06T06:15:57;99504.94;;;21.26;53.91
28428;BME280;15662;49.128;8.520;2023-08-06T06:18:25;99511.94;;;21.29;53.92
28428;BME280;15662;49.128;8.520;2023-08-06T06:20:53;99512.69;;;21.31;54.08
28428;BME280;15662;49.128;8.520;2023-08-06T06:23:21;99506.19;;;21.33;54.15
28428;BME280;15662;49.128;8.520;2023-08-06T06:25:50;99505.66;;;21.40;54.03
28428;BME280;15662;49.128;8.520;2023-08-06T06:28:20;99517.06;;;21.43;54.24
28428;BME280;15662;49.128;8.520;2023-08-06T06:30:48;99514.22;;;21.45;54.10
28428;BME280;15662;49.128;8.520;2023-08-06T06:33:16;99518.63;;;21.46;54.16
28428;BME280;15662;49.128;8.520;2023-08-06T06:35:44;99524.63;;;21.49;54.24
28428;BME280;15662;49.128;8.520;2023-08-06T06:38:12;99525.63;;;21.48;54.08
28428;BME280;15662;49.128;8.520;2023-08-06T06:40:39;99522.06;;;21.48;53.99
28428;BME280;15662;49.128;8.520;2023-08-06T06:43:09;99524.63;;;21.49;54.07
28428;BME280;15662;49.128;8.520;2023-08-06T06:45:37;99524.47;;;21.51;53.96
28428;BME280;15662;49.128;8.520;2023-08-06T06:48:05;99524.75;;;21.48;53.88
28428;BME280;15662;49.128;8.520;2023-08-06T06:50:33;99521.19;;;21.47;54.00
28428;BME280;15662;49.128;8.520;2023-08-06T06:53:03;99522.91;;;21.48;53.79
28428;BME280;15662;49.128;8.520;2023-08-06T06:55:30;99533.56;;;21.50;53.91
28428;BME280;15662;49.128;8.520;2023-08-06T06:57:58;99525.72;;;21.47;53.86
28428;BME280;15662;49.128;8.520;2023-08-06T07:00:26;99523.50;;;21.52;54.03
28428;BME280;15662;49.128;8.520;2023-08-06T07:02:54;99523.50;;;21.52;53.92
28428;BME280;15662;49.128;8.520;2023-08-06T07:05:22;99529.34;;;21.57;53.81
28428;BME280;15662;49.128;8.520;2023-08-06T07:07:49;99525.94;;;21.55;53.85
28428;BME280;15662;49.128;8.520;2023-08-06T07:10:17;99526.47;;;21.49;53.66
28428;BME280;15662;49.128;8.520;2023-08-06T07:12:45;99531.00;;;21.48;53.81
28428;BME280;15662;49.128;8.520;2023-08-06T07:15:13;99519.00;;;21.41;54.00
28428;BME280;15662;49.128;8.520;2023-08-06T07:17:41;99533.47;;;21.40;53.99
28428;BME280;15662;49.128;8.520;2023-08-06T07:20:09;99521.09;;;21.37;53.88
28428;BME280;15662;49.128;8.520;2023-08-06T07:22:37;99528.72;;;21.32;53.94
28428;BME280;15662;49.128;8.520;2023-08-06T07:25:05;99532.16;;;21.34;54.10
28428;BME280;15662;49.128;8.520;2023-08-06T07:27:33;99533.00;;;21.35;54.05
28428;BME280;15662;49.128;8.520;2023-08-06T07:30:01;99528.00;;;21.30;54.20
28428;BME280;15662;49.128;8.520;2023-08-06T07:32:29;99536.09;;;21.30;54.17
28428;BME280;15662;49.128;8.520;2023-08-06T07:34:57;99540.50;;;21.31;54.44
28428;BME280;15662;49.128;8.520;2023-08-06T07:37:28;99541.34;;;21.32;54.67
28428;BME280;15662;49.128;8.520;2023-08-06T07:39:56;99536.41;;;21.37;54.67
28428;BME280;15662;49.128;8.520;2023-08-06T07:42:24;99534.34;;;21.41;54.44
28428;BME280;15662;49.128;8.520;2023-08-06T07:44:56;99533.56;;;21.50;54.33
28428;BME280;15662;49.128;8.520;2023-08-06T07:47:24;99531.84;;;21.49;54.55
28428;BME280;15662;49.128;8.520;2023-08-06T07:49:52;99535.47;;;21.59;54.49
28428;BME280;15662;49.128;8.520;2023-08-06T07:52:20;99534.56;;;21.70;54.62
28428;BME280;15662;49.128;8.520;2023-08-06T07:54:48;99541.50;;;21.83;54.66
28428;BME280;15662;49.128;8.520;2023-08-06T07:57:16;99534.47;;;21.92;54.55
28428;BME280;15662;49.128;8.520;2023-08-06T07:59:44;99539.16;;;22.00;54.23
28428;BME280;15662;49.128;8.520;2023-08-06T08:02:12;99541.03;;;21.99;54.09
28428;BME280;15662;49.128;8.520;2023-08-06T08:04:40;99540.88;;;22.01;53.97
28428;BME280;15662;49.128;8.520;2023-08-06T08:07:10;99543.47;;;22.02;53.82
28428;BME280;15662;49.128;8.520;2023-08-06T08:09:38;99535.47;;;22.01;53.90
28428;BME280;15662;49.128;8.520;2023-08-06T08:12:07;99531.69;;;22.03;54.01
28428;BME280;15662;49.128;8.520;2023-08-06T08:14:34;99528.06;;;22.14;53.92
28428;BME280;15662;49.128;8.520;2023-08-06T08:17:06;99527.94;;;22.15;54.11
28428;BME280;15662;49.128;8.520;2023-08-06T08:19:33;99537.78;;;22.26;54.02
28428;BME280;15662;49.128;8.520;2023-08-06T08:22:01;99537.38;;;22.31;53.81
28428;BME280;15662;49.128;8.520;2023-08-06T08:24:29;99525.31;;;22.35;53.99
28428;BME280;15662;49.128;8.520;2023-08-06T08:26:58;99530.06;;;22.43;54.14
28428;BME280;15662;49.128;8.520;2023-08-06T08:29:26;99532.94;;;22.51;54.47
28428;BME280;15662;49.128;8.520;2023-08-06T08:31:54;99529.13;;;22.53;54.55
28428;BME280;15662;49.128;8.520;2023-08-06T08:34:22;99538.06;;;22.54;54.74
28428;BME280;15662;49.128;8.520;2023-08-06T08:36:50;99530.78;;;22.45;54.58
28428;BME280;15662;49.128;8.520;2023-08-06T08:39:18;99523.78;;;22.32;54.86
28428;BME280;15662;49.128;8.520;2023-08-06T08:41:45;99520.63;;;22.27;54.78
28428;BME280;15662;49.128;8.520;2023-08-06T08:44:16;99533.66;;;22.22;54.74
28428;BME280;15662;49.128;8.520;2023-08-06T08:46:44;99527.38;;;22.12;54.99
28428;BME280;15662;49.128;8.520;2023-08-06T08:49:12;99520.97;;;22.13;55.26
28428;BME280;15662;49.128;8.520;2023-08-06T08:51:40;99517.66;;;22.09;55.38
28428;BME280;15662;49.128;8.520;2023-08-06T08:54:09;99522.72;;;22.03;55.18
28428;BME280;15662;49.128;8.520;2023-08-06T08:56:39;99522.28;;;21.98;55.19
28428;BME280;15662;49.128;8.520;2023-08-06T08:59:06;99525.94;;;21.97;55.46
28428;BME280;15662;49.128;8.520;2023-08-06T09:01:35;99520.97;;;21.92;55.54
28428;BME280;15662;49.128;8.520;2023-08-06T09:04:04;99533.91;;;21.98;55.67
28428;BME280;15662;49.128;8.520;2023-08-06T09:06:36;99538.91;;;22.03;55.92
28428;BME280;15662;49.128;8.520;2023-08-06T09:09:26;99541.81;;;22.11;56.00
28428;BME280;15662;49.128;8.520;2023-08-06T09:11:58;99529.06;;;22.13;56.38
28428;BME280;15662;49.128;8.520;2023-08-06T09:14:27;99534.53;;;22.23;56.51
28428;BME280;15662;49.128;8.520;2023-08-06T09:16:56;99533.56;;;22.33;56.46
28428;BME280;15662;49.128;8.520;2023-08-06T09:19:25;99539.47;;;22.48;56.53
28428;BME280;15662;49.128;8.520;2023-08-06T09:21:56;99543.63;;;22.52;56.42
28428;BME280;15662;49.128;8.520;2023-08-06T09:24:24;99545.47;;;22.52;56.33
28428;BME280;15662;49.128;8.520;2023-08-06T09:26:53;99548.41;;;22.49;56.08
28428;BME280;15662;49.128;8.520;2023-08-06T09:29:22;99540.41;;;22.37;56.08
28428;BME280;15662;49.128;8.520;2023-08-06T09:31:50;99551.47;;;22.34;56.39
28428;BME280;15662;49.128;8.520;2023-08-06T09:34:22;99524.44;;;22.25;56.35
28428;BME280;15662;49.128;8.520;2023-08-06T09:36:54;99545.03;;;22.26;56.23
28428;BME280;15662;49.128;8.520;2023-08-06T09:39:27;99529.84;;;22.04;56.51
28428;BME280;15662;49.128;8.520;2023-08-06T09:42:02;99544.13;;;22.15;56.29
28428;BME280;15662;49.128;8.520;2023-08-06T09:44:32;99534.47;;;22.13;56.51
28428;BME280;15662;49.128;8.520;2023-08-06T09:47:02;99540.94;;;22.10;56.33
28428;BME280;15662;49.128;8.520;2023-08-06T09:52:02;99544.72;;;21.98;56.40
28428;BME280;15662;49.128;8.520;2023-08-06T09:54:30;99554.75;;;21.96;56.40
28428;BME280;15662;49.128;8.520;2023-08-06T09:56:58;99557.75;;;21.93;56.41
28428;BME280;15662;49.128;8.520;2023-08-06T09:59:26;99564.00;;;21.94;56.49
28428;BME280;15662;49.128;8.520;2023-08-06T10:01:55;99568.31;;;21.85;56.51
28428;BME280;15662;49.128;8.520;2023-08-06T10:04:24;99565.16;;;21.80;56.53
28428;BME280;15662;49.128;8.520;2023-08-06T10:07:02;99570.56;;;21.80;56.64
28428;BME280;15662;49.128;8.520;2023-08-06T10:09:30;99565.03;;;21.81;56.61
28428;BME280;15662;49.128;8.520;2023-08-06T10:11:58;99572.53;;;21.78;56.47
28428;BME280;15662;49.128;8.520;2023-08-06T10:14:33;99571.81;;;21.76;56.64
28428;BME280;15662;49.128;8.520;2023-08-06T10:17:03;99578.44;;;21.72;56.72
28428;BME280;15662;49.128;8.520;2023-08-06T10:19:31;99587.13;;;21.75;56.71
28428;BME280;15662;49.128;8.520;2023-08-06T10:22:15;99590.69;;;21.76;56.62
28428;BME280;15662;49.128;8.520;2023-08-06T10:24:58;99587.66;;;21.69;56.38
28428;BME280;15662;49.128;8.520;2023-08-06T10:27:40;99589.13;;;21.62;56.51
28428;BME280;15662;49.128;8.520;2023-08-06T10:30:29;99596.13;;;21.64;56.45
28428;BME280;15662;49.128;8.520;2023-08-06T10:33:04;99607.91;;;21.63;56.53
28428;BME280;15662;49.128;8.520;2023-08-06T10:35:42;99600.53;;;21.66;56.36
28428;BME280;15662;49.128;8.520;2023-08-06T10:38:22;99603.09;;;21.67;56.44
28428;BME280;15662;49.128;8.520;2023-08-06T10:43:30;99604.81;;;21.68;56.38
28428;BME280;15662;49.128;8.520;2023-08-06T10:46:01;99615.63;;;21.68;56.28
28428;BME280;15662;49.128;8.520;2023-08-06T10:48:41;99623.34;;;21.61;55.93
28428;BME280;15662;49.128;8.520;2023-08-06T10:51:12;99612.22;;;21.55;55.82
28428;BME280;15662;49.128;8.520;2023-08-06T10:53:46;99624.56;;;21.57;55.88
28428;BME280;15662;49.128;8.520;2023-08-06T10:56:16;99633.06;;;21.53;55.81
28428;BME280;15662;49.128;8.520;2023-08-06T10:58:46;99643.13;;;21.51;55.72
28428;BME280;15662;49.128;8.520;2023-08-06T11:01:15;99651.34;;;21.49;55.85
28428;BME280;15662;49.128;8.520;2023-08-06T11:03:45;99655.03;;;21.48;55.62
28428;BME280;15662;49.128;8.520;2023-08-06T11:06:21;99650.72;;;21.46;55.89
28428;BME280;15662;49.128;8.520;2023-08-06T11:08:54;99656.25;;;21.44;55.97
28428;BME280;15662;49.128;8.520;2023-08-06T11:11:23;99652.22;;;21.38;55.83
28428;BME280;15662;49.128;8.520;2023-08-06T11:13:52;99653.09;;;21.39;55.87
28428;BME280;15662;49.128;8.520;2023-08-06T11:16:22;99661.16;;;21.39;55.78
28428;BME280;15662;49.128;8.520;2023-08-06T11:18:53;99668.78;;;21.34;55.71
28428;BME280;15662;49.128;8.520;2023-08-06T11:21:22;99669.00;;;21.31;55.79
28428;BME280;15662;49.128;8.520;2023-08-06T11:23:53;99678.56;;;21.24;55.81
28428;BME280;15662;49.128;8.520;2023-08-06T11:26:22;99671.69;;;21.20;56.11
28428;BME280;15662;49.128;8.520;2023-08-06T11:28:53;99674.28;;;21.10;56.01
28428;BME280;15662;49.128;8.520;2023-08-06T11:31:22;99681.13;;;21.14;55.89
28428;BME280;15662;49.128;8.520;2023-08-06T11:33:54;99688.84;;;21.07;55.97
28428;BME280;15662;49.128;8.520;2023-08-06T11:36:32;99674.88;;;21.02;56.06
28428;BME280;15662;49.128;8.520;2023-08-06T11:39:02;99692.25;;;20.98;55.85
28428;BME280;15662;49.128;8.520;2023-08-06T11:41:32;99699.38;;;20.99;56.19
28428;BME280;15662;49.128;8.520;2023-08-06T11:44:00;99688.97;;;20.95;56.24
28428;BME280;15662;49.128;8.520;2023-08-06T11:46:28;99682.59;;;20.96;56.26
28428;BME280;15662;49.128;8.520;2023-08-06T11:48:58;99694.00;;;20.99;56.21
28428;BME280;15662;49.128;8.520;2023-08-06T11:51:26;99702.56;;;21.04;56.19
28428;BME280;15662;49.128;8.520;2023-08-06T11:53:58;99706.34;;;21.13;56.16
28428;BME280;15662;49.128;8.520;2023-08-06T11:56:27;99701.94;;;21.12;56.30
28428;BME280;15662;49.128;8.520;2023-08-06T11:58:55;99715.06;;;21.17;56.10
28428;BME280;15662;49.128;8.520;2023-08-06T12:01:23;99712.25;;;21.18;56.11
28428;BME280;15662;49.128;8.520;2023-08-06T12:03:52;99723.13;;;21.28;56.36
28428;BME280;15662;49.128;8.520;2023-08-06T12:06:20;99724.00;;;21.28;56.36
28428;BME280;15662;49.128;8.520;2023-08-06T12:08:48;99725.13;;;21.37;56.04
28428;BME280;15662;49.128;8.520;2023-08-06T12:11:16;99728.28;;;21.42;55.97
28428;BME280;15662;49.128;8.520;2023-08-06T12:13:43;99735.16;;;21.46;55.72
28428;BME280;15662;49.128;8.520;2023-08-06T12:16:11;99725.00;;;21.50;55.73
28428;BME280;15662;49.128;8.520;2023-08-06T12:18:41;99729.16;;;21.54;55.63
28428;BME280;15662;49.128;8.520;2023-08-06T12:21:09;99720.59;;;21.49;55.43
28428;BME280;15662;49.128;8.520;2023-08-06T12:23:36;99724.28;;;21.48;55.10
28428;BME280;15662;49.128;8.520;2023-08-06T12:26:07;99732.47;;;21.46;55.35
28428;BME280;15662;49.128;8.520;2023-08-06T12:28:35;99735.53;;;21.53;55.21
28428;BME280;15662;49.128;8.520;2023-08-06T12:31:03;99743.34;;;21.56;55.00
28428;BME280;15662;49.128;8.520;2023-08-06T12:33:31;99738.81;;;21.56;54.73
28428;BME280;15662;49.128;8.520;2023-08-06T12:35:58;99751.06;;;21.60;54.90
28428;BME280;15662;49.128;8.520;2023-08-06T12:38:26;99753.53;;;21.63;54.72
28428;BME280;15662;49.128;8.520;2023-08-06T12:40:54;99753.53;;;21.63;54.50
28428;BME280;15662;49.128;8.520;2023-08-06T12:43:22;99760.63;;;21.64;54.40
28428;BME280;15662;49.128;8.520;2023-08-06T12:45:50;99756.81;;;21.67;54.15
28428;BME280;15662;49.128;8.520;2023-08-06T12:48:17;99761.97;;;21.70;54.16
28428;BME280;15662;49.128;8.520;2023-08-06T12:50:46;99761.72;;;21.73;54.04
28428;BME280;15662;49.128;8.520;2023-08-06T12:53:14;99765.16;;;21.75;54.02
28428;BME280;15662;49.128;8.520;2023-08-06T12:55:42;99763.06;;;21.79;53.99
28428;BME280;15662;49.128;8.520;2023-08-06T12:58:10;99760.84;;;21.84;53.93
28428;BME280;15662;49.128;8.520;2023-08-06T13:00:38;99764.88;;;21.89;54.06
28428;BME280;15662;49.128;8.520;2023-08-06T13:03:06;99761.56;;;21.97;54.34
28428;BME280;15662;49.128;8.520;2023-08-06T13:05:34;99773.78;;;22.01;54.24
28428;BME280;15662;49.128;8.520;2023-08-06T13:08:02;99775.53;;;22.02;54.25
28428;BME280;15662;49.128;8.520;2023-08-06T13:10:30;99788.41;;;21.99;54.08
28428;BME280;15662;49.128;8.520;2023-08-06T13:12:59;99786.09;;;21.94;54.27
28428;BME280;15662;49.128;8.520;2023-08-06T13:15:27;99778.13;;;21.93;54.27
28428;BME280;15662;49.128;8.520;2023-08-06T13:17:54;99764.75;;;21.91;54.34